createdAt,value
2023-02-17T00:00:12.837Z,91.60
2023-02-17T00:02:43.908Z,90.90
2023-02-17T00:05:18.068Z,91.10
2023-02-17T00:07:49.156Z,88.90
2023-02-17T00:10:20.577Z,88.00
2023-02-17T00:13:39.106Z,88.70
2023-02-17T00:16:15.834Z,88.90
2023-02-17T00:18:46.837Z,89.40
2023-02-17T00:21:19.841Z,90.60
2023-02-17T00:23:51.495Z,91.20
2023-02-17T00:26:23.060Z,89.10
2023-02-17T00:28:54.198Z,89.00
2023-02-17T00:31:26.200Z,89.50
2023-02-17T00:34:00.379Z,90.00
2023-02-17T00:36:31.657Z,90.10
2023-02-17T00:39:03.286Z,90.80
2023-02-17T00:41:34.186Z,91.30
2023-02-17T00:44:05.131Z,91.70
2023-02-17T00:46:36.157Z,90.90
2023-02-17T00:49:07.139Z,90.70
2023-02-17T00:51:38.055Z,90.70
2023-02-17T00:54:09.550Z,91.00
2023-02-17T00:56:40.472Z,88.90
2023-02-17T00:59:12.016Z,86.70
2023-02-17T01:01:42.969Z,85.50
2023-02-17T01:04:14.165Z,85.20
2023-02-17T01:06:46.879Z,85.30
2023-02-17T01:09:18.514Z,85.20
2023-02-17T01:11:49.715Z,85.00
2023-02-17T01:14:41.019Z,84.60
2023-02-17T01:17:12.269Z,84.50
2023-02-17T01:19:43.412Z,84.40
2023-02-17T01:22:14.751Z,83.90
2023-02-17T01:24:46.514Z,75.60
2023-02-17T01:30:12.075Z,75.50
2023-02-17T01:32:43.530Z,75.20
2023-02-17T01:35:15.716Z,74.70
2023-02-17T01:37:51.276Z,74.50
2023-02-17T01:40:23.619Z,74.30
2023-02-17T01:42:54.704Z,74.70
2023-02-17T01:45:34.064Z,74.40
2023-02-17T01:48:11.239Z,74.10
2023-02-17T01:50:44.711Z,73.90
2023-02-17T01:53:26.061Z,73.90
2023-02-17T01:56:01.969Z,73.40
2023-02-17T01:58:43.287Z,73.40
2023-02-17T02:01:15.262Z,73.80
2023-02-17T02:03:51.661Z,73.90
2023-02-17T02:06:25.424Z,73.30
2023-02-17T02:09:11.316Z,73.30
2023-02-17T02:11:42.674Z,73.10
2023-02-17T02:14:15.094Z,72.90
2023-02-17T02:17:08.722Z,73.00
2023-02-17T02:20:04.278Z,73.20
2023-02-17T02:22:51.453Z,73.30
2023-02-17T02:25:45.081Z,73.50
2023-02-17T02:28:30.250Z,73.30
2023-02-17T02:31:29.548Z,73.20
2023-02-17T02:34:02.898Z,73.20
2023-02-17T02:36:42.896Z,72.70
2023-02-17T02:39:22.352Z,72.90
2023-02-17T02:41:59.137Z,72.80
2023-02-17T02:44:30.981Z,72.40
2023-02-17T02:47:04.587Z,72.40
2023-02-17T02:49:38.259Z,72.40
2023-02-17T02:52:24.173Z,72.20
2023-02-17T02:55:15.172Z,72.00
2023-02-17T02:57:56.818Z,72.10
2023-02-17T03:00:45.080Z,71.90
2023-02-17T03:03:52.801Z,71.90
2023-02-17T03:06:32.699Z,71.80
2023-02-17T03:09:09.220Z,71.20
2023-02-17T03:11:41.585Z,71.00
2023-02-17T03:14:15.212Z,71.00
2023-02-17T03:16:48.335Z,70.90
2023-02-17T03:19:21.913Z,69.70
2023-02-17T03:21:55.538Z,69.80
2023-02-17T03:24:26.835Z,69.90
2023-02-17T03:26:58.580Z,69.40
2023-02-17T03:29:30.171Z,69.00
2023-02-17T03:32:01.765Z,69.20
2023-02-17T03:34:33.321Z,68.90
2023-02-17T03:37:12.960Z,68.80
2023-02-17T03:39:41.693Z,68.80
2023-02-17T03:42:25.831Z,68.80
2023-02-17T03:45:03.584Z,68.30
2023-02-17T03:51:04.451Z,67.60
2023-02-17T03:53:35.758Z,67.80
2023-02-17T03:56:07.247Z,67.50
2023-02-17T03:58:38.989Z,67.40
2023-02-17T04:01:12.191Z,67.20
2023-02-17T04:03:44.062Z,67.60
2023-02-17T04:06:15.344Z,67.50
2023-02-17T04:08:46.309Z,66.90
2023-02-17T04:11:17.756Z,66.50
2023-02-17T04:13:48.785Z,66.50
2023-02-17T04:16:19.793Z,66.50
2023-02-17T04:18:51.297Z,66.10
2023-02-17T04:21:22.606Z,66.40
2023-02-17T04:23:55.137Z,65.90
2023-02-17T04:26:26.317Z,66.00
2023-02-17T04:28:57.529Z,65.80
2023-02-17T04:31:29.167Z,65.90
2023-02-17T04:34:00.318Z,66.50
2023-02-17T04:36:31.231Z,66.50
2023-02-17T04:39:02.320Z,66.50
2023-02-17T04:41:33.401Z,66.50
2023-02-17T04:44:04.909Z,66.00
2023-02-17T04:46:36.658Z,65.90
2023-02-17T04:49:08.465Z,65.80
2023-02-17T04:51:40.866Z,65.30
2023-02-17T04:54:12.636Z,64.80
2023-02-17T04:56:51.029Z,64.80
2023-02-17T04:59:24.095Z,64.70
2023-02-17T05:01:57.380Z,64.60
2023-02-17T05:04:28.882Z,64.30
2023-02-17T05:07:05.849Z,64.80
2023-02-17T05:09:37.213Z,64.70
2023-02-17T05:12:15.222Z,64.30
2023-02-17T05:14:45.735Z,65.00
2023-02-17T05:17:17.889Z,64.90
2023-02-17T05:19:48.780Z,64.80
2023-02-17T05:22:19.717Z,64.40
2023-02-17T05:24:50.642Z,64.30
2023-02-17T05:27:22.180Z,63.80
2023-02-17T05:29:53.328Z,63.70
2023-02-17T05:32:25.688Z,64.20
2023-02-17T05:34:56.568Z,63.80
2023-02-17T05:37:30.089Z,63.80
2023-02-17T05:40:01.019Z,64.00
2023-02-17T05:42:32.006Z,64.40
2023-02-17T05:45:02.939Z,63.90
2023-02-17T05:47:35.738Z,65.30
2023-02-17T05:50:07.330Z,64.20
2023-02-17T05:52:38.423Z,64.50
2023-02-17T05:55:10.309Z,64.20
2023-02-17T05:57:42.089Z,63.20
2023-02-17T06:00:14.853Z,63.90
2023-02-17T06:02:45.802Z,65.00
2023-02-17T06:05:17.055Z,64.10
2023-02-17T06:07:48.502Z,63.80
2023-02-17T06:10:19.638Z,63.90
2023-02-17T06:12:51.281Z,63.90
2023-02-17T06:15:22.602Z,64.50
2023-02-17T06:17:54.021Z,63.40
2023-02-17T06:20:25.307Z,63.00
2023-02-17T06:22:56.465Z,63.10
2023-02-17T06:25:27.585Z,62.60
2023-02-17T06:27:58.763Z,61.80
2023-02-17T06:30:32.190Z,61.40
2023-02-17T06:33:03.095Z,61.50
2023-02-17T06:35:34.841Z,61.60
2023-02-17T06:38:05.771Z,61.40
2023-02-17T06:40:57.390Z,61.80
2023-02-17T06:43:30.351Z,61.70
2023-02-17T06:46:04.951Z,61.60
2023-02-17T06:48:37.074Z,60.80
2023-02-17T06:51:12.297Z,60.50
2023-02-17T06:53:43.467Z,61.50
2023-02-17T06:56:14.909Z,60.80
2023-02-17T06:58:46.779Z,60.90
2023-02-17T07:01:39.291Z,60.50
2023-02-17T07:04:12.581Z,60.80
2023-02-17T07:06:43.987Z,60.60
2023-02-17T07:09:15.351Z,60.30
2023-02-17T07:11:47.180Z,60.10
2023-02-17T07:14:18.667Z,60.40
2023-02-17T07:16:50.463Z,60.30
2023-02-17T07:19:24.380Z,59.50
2023-02-17T07:21:55.701Z,59.90
2023-02-17T07:24:29.764Z,59.30
2023-02-17T07:27:02.018Z,59.00
2023-02-17T07:29:33.130Z,59.70
2023-02-17T07:32:07.544Z,59.10
2023-02-17T07:34:40.087Z,58.80
2023-02-17T07:37:11.896Z,59.30
2023-02-17T07:39:43.256Z,58.70
2023-02-17T07:42:14.139Z,59.30
2023-02-17T07:47:23.546Z,59.30
2023-02-17T07:49:54.703Z,58.80
2023-02-17T07:55:14.795Z,58.70
2023-02-17T07:57:45.973Z,58.50
2023-02-17T08:00:24.112Z,58.60
2023-02-17T08:03:02.032Z,58.40
2023-02-17T08:05:30.939Z,58.20
2023-02-17T08:08:23.501Z,58.50
2023-02-17T08:11:12.669Z,58.50
2023-02-17T08:13:44.127Z,59.10
2023-02-17T08:16:17.143Z,58.60
2023-02-17T08:18:48.492Z,58.90
2023-02-17T08:21:20.942Z,59.40
2023-02-17T08:23:52.508Z,58.40
2023-02-17T08:26:26.831Z,58.40
2023-02-17T08:29:00.548Z,58.70
2023-02-17T08:31:36.915Z,58.50
2023-02-17T08:34:11.048Z,58.30
2023-02-17T08:36:42.481Z,58.50
2023-02-17T08:39:20.021Z,58.80
2023-02-17T08:41:51.834Z,58.60
2023-02-17T08:44:23.980Z,58.80
2023-02-17T08:46:55.939Z,58.60
2023-02-17T08:49:30.003Z,58.20
2023-02-17T08:52:02.413Z,58.60
2023-02-17T08:54:33.910Z,58.30
2023-02-17T08:57:04.928Z,58.30
2023-02-17T08:59:36.507Z,57.60
2023-02-17T09:02:07.963Z,57.80
2023-02-17T09:04:38.954Z,57.90
2023-02-17T09:07:12.577Z,57.40
2023-02-17T09:09:44.625Z,57.70
2023-02-17T09:12:16.112Z,57.70
2023-02-17T09:14:50.634Z,57.50
2023-02-17T09:17:24.095Z,58.00
2023-02-17T09:19:55.880Z,58.10
2023-02-17T09:22:32.056Z,58.10
2023-02-17T09:25:00.055Z,57.50
2023-02-17T09:27:54.624Z,57.50
2023-02-17T09:30:26.224Z,57.80
2023-02-17T09:33:03.589Z,57.90
2023-02-17T09:35:35.377Z,57.90
2023-02-17T09:38:06.671Z,57.70
2023-02-17T09:40:54.454Z,57.90
2023-02-17T09:43:28.607Z,58.20
2023-02-17T09:46:02.737Z,58.40
2023-02-17T09:48:38.835Z,58.40
2023-02-17T09:51:26.082Z,58.40
2023-02-17T09:54:13.687Z,58.50
2023-02-17T09:56:47.420Z,58.30
2023-02-17T09:59:43.173Z,58.60
2023-02-17T10:02:52.536Z,58.60
2023-02-17T10:05:31.446Z,58.70
2023-02-17T10:08:13.955Z,58.80
2023-02-17T10:11:09.028Z,58.80
2023-02-17T10:13:55.592Z,59.10
2023-02-17T10:16:33.277Z,59.20
2023-02-17T10:19:54.895Z,59.40
2023-02-17T10:22:07.295Z,59.40
2023-02-17T10:24:38.798Z,59.50
2023-02-17T10:27:33.701Z,59.60
2023-02-17T10:30:12.915Z,59.90
2023-02-17T10:33:02.182Z,60.00
2023-02-17T10:35:54.831Z,59.90
2023-02-17T10:38:46.289Z,60.00
2023-02-17T10:41:20.364Z,59.50
2023-02-17T10:43:53.182Z,60.20
2023-02-17T10:46:27.030Z,60.40
2023-02-17T10:49:00.153Z,60.60
2023-02-17T10:51:33.459Z,60.50
2023-02-17T10:54:09.726Z,60.40
2023-02-17T10:56:46.308Z,60.60
2023-02-17T10:59:35.138Z,60.60
2023-02-17T11:02:26.611Z,60.50
2023-02-17T11:04:59.283Z,60.50
2023-02-17T11:07:44.461Z,60.80
2023-02-17T11:10:30.041Z,60.90
2023-02-17T11:13:04.560Z,60.90
2023-02-17T11:15:41.081Z,61.20
2023-02-17T11:18:23.323Z,61.20
2023-02-17T11:20:56.696Z,61.10
2023-02-17T11:23:32.932Z,61.30
2023-02-17T11:26:12.165Z,61.30
2023-02-17T11:28:44.968Z,61.20
2023-02-17T11:31:38.549Z,61.50
2023-02-17T11:34:22.545Z,62.00
2023-02-17T11:37:07.441Z,62.10
2023-02-17T11:39:42.570Z,62.30
2023-02-17T11:42:30.731Z,62.60
2023-02-17T11:45:03.173Z,62.60
2023-02-17T11:47:45.457Z,62.50
2023-02-17T11:50:31.965Z,62.70
2023-02-17T11:53:03.067Z,62.60
2023-02-17T11:55:39.379Z,62.50
2023-02-17T11:58:24.998Z,62.60
2023-02-17T12:01:10.023Z,62.70
2023-02-17T12:03:55.150Z,62.80
2023-02-17T12:06:37.266Z,63.00
2023-02-17T12:09:16.452Z,63.00
2023-02-17T12:11:55.868Z,63.00
2023-02-17T12:14:47.234Z,62.70
2023-02-17T12:17:41.825Z,62.60
2023-02-17T12:20:20.776Z,62.40
2023-02-17T12:22:59.728Z,62.70
2023-02-17T12:25:48.800Z,62.50
2023-02-17T12:28:34.196Z,62.50
2023-02-17T12:31:25.633Z,62.60
2023-02-17T12:34:11.106Z,62.70
2023-02-17T12:36:43.916Z,62.80
2023-02-17T12:39:31.532Z,63.00
2023-02-17T12:42:15.675Z,63.10
2023-02-17T12:44:53.861Z,63.20
2023-02-17T12:47:29.505Z,63.20
2023-02-17T12:50:05.789Z,63.30
2023-02-17T12:52:39.125Z,63.40
2023-02-17T12:55:12.537Z,63.60
2023-02-17T12:58:05.991Z,63.70
2023-02-17T13:00:45.881Z,63.80
2023-02-17T13:03:17.089Z,63.90
2023-02-17T13:05:50.341Z,64.00
2023-02-17T13:08:45.744Z,64.20
2023-02-17T13:11:19.069Z,64.20
2023-02-17T13:13:50.033Z,64.20
2023-02-17T13:16:21.115Z,64.10
2023-02-17T13:18:54.156Z,64.10
2023-02-17T13:21:28.892Z,64.10
2023-02-17T13:24:20.662Z,64.20
2023-02-17T13:26:51.757Z,64.20
2023-02-17T13:29:36.734Z,64.20
2023-02-17T13:32:28.637Z,64.10
2023-02-17T13:35:33.164Z,64.10
2023-02-17T13:38:04.214Z,64.20
2023-02-17T13:40:40.516Z,64.30
2023-02-17T13:43:20.905Z,64.10
2023-02-17T13:46:02.484Z,64.10
2023-02-17T13:48:37.749Z,64.10
2023-02-17T13:51:11.136Z,64.10
2023-02-17T13:53:46.710Z,64.40
2023-02-17T13:56:33.175Z,64.20
2023-02-17T13:59:13.452Z,64.20
2023-02-17T14:01:46.723Z,64.10
2023-02-17T14:04:32.332Z,64.30
2023-02-17T14:07:05.123Z,64.50
2023-02-17T14:09:37.228Z,64.40
2023-02-17T14:12:10.075Z,64.30
2023-02-17T14:14:42.650Z,64.10
2023-02-17T14:17:19.035Z,64.10
2023-02-17T14:19:52.769Z,64.30
2023-02-17T14:22:31.979Z,65.20
2023-02-17T14:25:11.514Z,64.00
2023-02-17T14:27:47.545Z,64.10
2023-02-17T14:30:20.578Z,64.00
2023-02-17T14:32:51.648Z,64.30
2023-02-17T14:35:26.453Z,64.20
2023-02-17T14:37:58.323Z,64.30
2023-02-17T14:40:29.561Z,64.40
2023-02-17T14:43:01.778Z,64.50
2023-02-17T14:45:32.749Z,64.70
2023-02-17T14:48:03.736Z,64.80
2023-02-17T14:50:38.289Z,64.80
2023-02-17T14:53:17.330Z,64.80
2023-02-17T14:55:54.541Z,64.80
2023-02-17T14:58:28.345Z,64.80
2023-02-17T15:00:59.768Z,64.60
2023-02-17T15:03:30.808Z,64.50
2023-02-17T15:06:03.310Z,64.50
2023-02-17T15:08:36.216Z,64.60
2023-02-17T15:11:07.829Z,65.30
2023-02-17T15:13:39.294Z,64.50
2023-02-17T15:16:10.925Z,64.50
2023-02-17T15:18:42.128Z,65.50
2023-02-17T15:21:21.266Z,64.60
2023-02-17T15:23:52.191Z,64.60
2023-02-17T15:26:26.044Z,64.70
2023-02-17T15:28:58.253Z,64.80
2023-02-17T15:31:34.260Z,64.10
2023-02-17T15:34:05.351Z,65.00
2023-02-17T15:36:36.284Z,65.20
2023-02-17T15:39:07.322Z,65.30
2023-02-17T15:41:47.610Z,65.50
2023-02-17T15:44:16.506Z,65.60
2023-02-17T15:46:50.566Z,65.60
2023-02-17T15:49:22.793Z,65.70
2023-02-17T15:52:03.367Z,65.80
2023-02-17T15:55:25.571Z,65.70
2023-02-17T15:57:44.977Z,65.80
2023-02-17T16:00:20.596Z,65.80
2023-02-17T16:03:07.019Z,65.90
2023-02-17T16:05:40.666Z,65.60
2023-02-17T16:08:21.969Z,65.30
2023-02-17T16:10:55.017Z,65.50
2023-02-17T16:13:29.806Z,65.90
2023-02-17T16:16:05.383Z,66.30
2023-02-17T16:18:35.720Z,66.50
2023-02-17T16:21:06.865Z,66.80
2023-02-17T16:23:50.992Z,67.30
2023-02-17T16:26:27.147Z,67.60
2023-02-17T16:28:58.545Z,67.90
2023-02-17T16:31:35.521Z,68.00
2023-02-17T16:34:06.597Z,68.30
2023-02-17T16:36:40.560Z,68.40
2023-02-17T16:39:16.596Z,68.60
2023-02-17T16:41:50.709Z,69.20
2023-02-17T16:44:24.065Z,69.10
2023-02-17T16:46:57.185Z,69.20
2023-02-17T16:49:37.120Z,69.20
2023-02-17T16:52:10.504Z,69.00
2023-02-17T16:54:42.063Z,69.10
2023-02-17T16:57:15.760Z,69.30
2023-02-17T16:59:49.751Z,69.40
2023-02-17T17:02:24.405Z,69.70
2023-02-17T17:04:56.659Z,69.90
2023-02-17T17:07:28.965Z,70.20
2023-02-17T17:10:15.366Z,70.30
2023-02-17T17:12:32.207Z,70.40
2023-02-17T17:15:04.523Z,70.40
2023-02-17T17:17:39.357Z,70.60
2023-02-17T17:20:12.250Z,70.70
2023-02-17T17:22:49.469Z,70.50
2023-02-17T17:25:21.341Z,70.70
2023-02-17T17:31:02.649Z,70.70
2023-02-17T17:33:35.988Z,71.10
2023-02-17T17:36:08.376Z,71.40
2023-02-17T17:38:43.053Z,71.20
2023-02-17T17:41:17.598Z,71.00
2023-02-17T17:43:52.408Z,71.10
2023-02-17T17:46:27.197Z,71.30
2023-02-17T17:49:03.183Z,71.20
2023-02-17T17:51:35.087Z,70.90
2023-02-17T17:54:06.533Z,70.70
2023-02-17T17:56:40.506Z,70.50
2023-02-17T17:59:14.000Z,70.50
2023-02-17T18:01:45.922Z,70.40
2023-02-17T18:04:17.035Z,70.40
2023-02-17T18:06:51.368Z,70.10
2023-02-17T18:09:31.648Z,70.20
2023-02-17T18:12:01.484Z,70.00
2023-02-17T18:14:33.187Z,70.10
2023-02-17T18:17:04.168Z,70.20
2023-02-17T18:19:38.829Z,70.40
2023-02-17T18:22:11.057Z,70.40
2023-02-17T18:24:43.788Z,70.40
2023-02-17T18:27:19.350Z,70.20
2023-02-17T18:29:50.362Z,71.40
2023-02-17T18:32:22.675Z,70.60
2023-02-17T18:34:55.009Z,70.70
2023-02-17T18:37:29.120Z,70.80
2023-02-17T18:39:59.436Z,70.70
2023-02-17T18:42:30.385Z,70.80
2023-02-17T18:45:04.120Z,71.00
2023-02-17T18:47:36.556Z,71.20
2023-02-17T18:50:10.578Z,71.50
2023-02-17T18:52:43.772Z,71.50
2023-02-17T18:55:15.637Z,71.60
2023-02-17T18:57:48.593Z,71.70
2023-02-17T19:00:21.700Z,71.90
2023-02-17T19:02:55.576Z,71.70
2023-02-17T19:05:33.181Z,72.10
2023-02-17T19:07:59.736Z,72.20
2023-02-17T19:10:32.551Z,72.20
2023-02-17T19:13:14.609Z,72.50
2023-02-17T19:15:56.663Z,72.50
2023-02-17T19:18:32.084Z,72.60
2023-02-17T19:21:04.576Z,72.60
2023-02-17T19:23:40.449Z,72.60
2023-02-17T19:26:14.119Z,72.80
2023-02-17T19:28:46.164Z,72.60
2023-02-17T19:31:19.827Z,73.70
2023-02-17T19:33:50.818Z,73.00
2023-02-17T19:36:23.636Z,73.10
2023-02-17T19:38:54.561Z,73.40
2023-02-17T19:41:25.999Z,73.10
2023-02-17T19:43:56.910Z,73.20
2023-02-17T19:46:27.892Z,73.50
2023-02-17T19:48:58.800Z,73.70
2023-02-17T19:51:29.739Z,73.80
2023-02-17T19:54:01.280Z,74.10
2023-02-17T19:56:34.686Z,74.20
2023-02-17T19:59:07.551Z,74.00
2023-02-17T20:01:38.526Z,74.20
2023-02-17T20:04:12.669Z,74.20
2023-02-17T20:06:46.824Z,74.30
2023-02-17T20:09:23.360Z,74.10
2023-02-17T20:11:54.670Z,74.40
2023-02-17T20:14:25.676Z,74.10
2023-02-17T20:16:57.519Z,74.30
2023-02-17T20:19:28.616Z,74.50
2023-02-17T20:22:00.933Z,74.50
2023-02-17T20:24:31.856Z,74.40
2023-02-17T20:27:03.190Z,75.00
2023-02-17T20:29:35.386Z,74.80
2023-02-17T20:32:06.408Z,74.80
2023-02-17T20:34:40.350Z,74.80
2023-02-17T20:37:11.952Z,75.00
2023-02-17T20:39:43.382Z,75.20
2023-02-17T20:42:14.286Z,75.20
2023-02-17T20:44:46.750Z,75.20
2023-02-17T20:47:17.778Z,75.60
2023-02-17T20:49:48.824Z,75.60
2023-02-17T20:52:20.038Z,75.70
2023-02-17T20:54:51.134Z,75.70
2023-02-17T20:57:22.111Z,75.80
2023-02-17T20:59:53.507Z,76.00
2023-02-17T21:02:24.428Z,76.10
2023-02-17T21:04:55.338Z,76.20
2023-02-17T21:07:26.292Z,76.30
2023-02-17T21:09:57.321Z,76.50
2023-02-17T21:12:28.265Z,76.50
2023-02-17T21:14:59.206Z,76.90
2023-02-17T21:17:30.241Z,77.00
2023-02-17T21:20:01.382Z,76.90
2023-02-17T21:22:32.327Z,76.70
2023-02-17T21:25:03.272Z,76.90
2023-02-17T21:27:34.479Z,77.00
2023-02-17T21:30:06.448Z,77.00
2023-02-17T21:32:37.507Z,77.10
2023-02-17T21:35:10.055Z,77.00
2023-02-17T21:37:41.369Z,77.00
2023-02-17T21:40:13.444Z,77.20
2023-02-17T21:43:01.951Z,77.20
2023-02-17T21:45:34.087Z,77.20
2023-02-17T21:48:05.377Z,77.20
2023-02-17T21:50:36.301Z,77.20
2023-02-17T21:53:07.299Z,77.20
2023-02-17T21:55:38.197Z,77.40
2023-02-17T21:58:09.115Z,77.30
2023-02-17T22:00:40.346Z,77.20
2023-02-17T22:03:11.264Z,77.40
2023-02-17T22:05:42.237Z,77.10
2023-02-17T22:08:13.259Z,77.20
2023-02-17T22:10:47.531Z,77.20
2023-02-17T22:13:18.548Z,77.20
2023-02-17T22:15:50.634Z,77.20
2023-02-17T22:18:23.958Z,77.10
2023-02-17T22:20:54.881Z,77.20
2023-02-17T22:23:25.846Z,77.40
2023-02-17T22:25:56.807Z,77.20
2023-02-17T22:28:27.797Z,77.20
2023-02-17T22:30:58.746Z,77.50
2023-02-17T22:33:29.750Z,77.70
2023-02-17T22:36:06.321Z,77.90
2023-02-17T22:38:38.227Z,77.90
2023-02-17T22:41:14.325Z,78.00
2023-02-17T22:43:45.737Z,78.10
2023-02-17T22:46:19.226Z,78.30
2023-02-17T22:48:51.835Z,78.00
2023-02-17T22:51:24.903Z,78.10
2023-02-17T22:53:55.802Z,78.20
2023-02-17T22:56:27.457Z,78.20
2023-02-17T22:58:59.717Z,78.10
2023-02-17T23:01:33.385Z,78.30
2023-02-17T23:04:04.554Z,78.30
2023-02-17T23:06:40.037Z,78.20
2023-02-17T23:09:12.824Z,78.30
2023-02-17T23:11:58.169Z,78.50
2023-02-17T23:14:35.089Z,78.30
2023-02-17T23:17:05.977Z,78.10
2023-02-17T23:19:41.283Z,78.00
2023-02-17T23:22:16.667Z,78.40
2023-02-17T23:24:48.843Z,78.60
2023-02-17T23:27:19.750Z,78.50
2023-02-17T23:29:50.721Z,78.70
2023-02-17T23:32:21.668Z,79.70
2023-02-17T23:34:52.715Z,81.80
2023-02-17T23:37:23.640Z,84.80
2023-02-17T23:39:54.574Z,79.20
2023-02-17T23:42:25.538Z,79.60
2023-02-17T23:44:56.570Z,80.10
2023-02-17T23:47:27.564Z,84.80
2023-02-17T23:49:58.489Z,81.60
2023-02-17T23:52:29.726Z,83.40
2023-02-17T23:55:00.706Z,79.90
2023-02-17T23:57:31.632Z,79.90
